sensor_id;sensor_type;location;lat;lon;timestamp;P1;durP1;ratioP1;P2;durP2;ratioP2
2646;SDS011;1333;50.958;6.770;2023-12-20T00:02:10;8.50;;;6.53;;
2646;SDS011;1333;50.958;6.770;2023-12-20T00:04:36;7.57;;;5.20;;
2646;SDS011;1333;50.958;6.770;2023-12-20T00:07:01;8.00;;;5.33;;
2646;SDS011;1333;50.958;6.770;2023-12-20T00:09:27;9.43;;;5.30;;
2646;SDS011;1333;50.958;6.770;2023-12-20T00:11:52;7.43;;;5.20;;
2646;SDS011;1333;50.958;6.770;2023-12-20T00:14:18;9.30;;;6.90;;
2646;SDS011;1333;50.958;6.770;2023-12-20T00:16:43;10.33;;;5.80;;
2646;SDS011;1333;50.958;6.770;2023-12-20T00:19:09;6.47;;;5.17;;
2646;SDS011;1333;50.958;6.770;2023-12-20T00:21:34;5.83;;;4.43;;
2646;SDS011;1333;50.958;6.770;2023-12-20T00:24:00;4.97;;;4.23;;
2646;SDS011;1333;50.958;6.770;2023-12-20T00:26:25;6.70;;;4.77;;
2646;SDS011;1333;50.958;6.770;2023-12-20T00:28:53;5.43;;;4.50;;
2646;SDS011;1333;50.958;6.770;2023-12-20T00:31:18;5.27;;;4.30;;
2646;SDS011;1333;50.958;6.770;2023-12-20T00:33:44;7.23;;;4.73;;
2646;SDS011;1333;50.958;6.770;2023-12-20T00:36:11;6.30;;;4.70;;
2646;SDS011;1333;50.958;6.770;2023-12-20T00:38:36;9.70;;;5.30;;
2646;SDS011;1333;50.958;6.770;2023-12-20T00:41:02;6.07;;;4.63;;
2646;SDS011;1333;50.958;6.770;2023-12-20T00:43:27;4.80;;;4.30;;
2646;SDS011;1333;50.958;6.770;2023-12-20T00:45:53;9.00;;;5.80;;
2646;SDS011;1333;50.958;6.770;2023-12-20T00:48:18;9.30;;;5.53;;
2646;SDS011;1333;50.958;6.770;2023-12-20T00:50:44;9.40;;;4.90;;
2646;SDS011;1333;50.958;6.770;2023-12-20T00:53:09;7.00;;;4.53;;
2646;SDS011;1333;50.958;6.770;2023-12-20T00:55:35;7.00;;;5.00;;
2646;SDS011;1333;50.958;6.770;2023-12-20T00:58:00;8.37;;;5.73;;
2646;SDS011;1333;50.958;6.770;2023-12-20T01:00:26;9.07;;;5.30;;
2646;SDS011;1333;50.958;6.770;2023-12-20T01:02:52;9.97;;;5.97;;
2646;SDS011;1333;50.958;6.770;2023-12-20T01:05:18;7.90;;;5.93;;
2646;SDS011;1333;50.958;6.770;2023-12-20T01:07:44;8.00;;;5.40;;
2646;SDS011;1333;50.958;6.770;2023-12-20T01:10:09;8.10;;;5.30;;
2646;SDS011;1333;50.958;6.770;2023-12-20T01:12:35;8.67;;;5.13;;
2646;SDS011;1333;50.958;6.770;2023-12-20T01:15:01;9.57;;;6.73;;
2646;SDS011;1333;50.958;6.770;2023-12-20T01:17:26;11.73;;;6.23;;
2646;SDS011;1333;50.958;6.770;2023-12-20T01:19:52;12.53;;;8.17;;
2646;SDS011;1333;50.958;6.770;2023-12-20T01:22:17;14.37;;;8.33;;
2646;SDS011;1333;50.958;6.770;2023-12-20T01:24:43;12.13;;;7.20;;
2646;SDS011;1333;50.958;6.770;2023-12-20T01:27:09;12.00;;;7.43;;
2646;SDS011;1333;50.958;6.770;2023-12-20T01:29:35;9.37;;;7.20;;
2646;SDS011;1333;50.958;6.770;2023-12-20T01:32:00;14.10;;;8.50;;
2646;SDS011;1333;50.958;6.770;2023-12-20T01:34:26;12.70;;;8.37;;
2646;SDS011;1333;50.958;6.770;2023-12-20T01:36:51;11.13;;;8.00;;
2646;SDS011;1333;50.958;6.770;2023-12-20T01:39:17;15.33;;;8.50;;
2646;SDS011;1333;50.958;6.770;2023-12-20T01:41:42;10.87;;;7.30;;
2646;SDS011;1333;50.958;6.770;2023-12-20T01:44:08;13.57;;;7.00;;
2646;SDS011;1333;50.958;6.770;2023-12-20T01:46:34;11.57;;;8.37;;
2646;SDS011;1333;50.958;6.770;2023-12-20T01:48:59;10.67;;;8.37;;
2646;SDS011;1333;50.958;6.770;2023-12-20T01:51:25;8.23;;;5.70;;
2646;SDS011;1333;50.958;6.770;2023-12-20T01:53:52;10.13;;;6.30;;
2646;SDS011;1333;50.958;6.770;2023-12-20T01:56:19;17.67;;;5.77;;
2646;SDS011;1333;50.958;6.770;2023-12-20T01:58:45;10.33;;;5.33;;
2646;SDS011;1333;50.958;6.770;2023-12-20T02:01:12;6.17;;;4.43;;
2646;SDS011;1333;50.958;6.770;2023-12-20T02:03:39;13.17;;;4.87;;
2646;SDS011;1333;50.958;6.770;2023-12-20T02:06:06;5.53;;;3.80;;
2646;SDS011;1333;50.958;6.770;2023-12-20T02:08:33;6.33;;;4.80;;
2646;SDS011;1333;50.958;6.770;2023-12-20T02:10:59;6.53;;;4.27;;
2646;SDS011;1333;50.958;6.770;2023-12-20T02:13:25;10.00;;;3.93;;
2646;SDS011;1333;50.958;6.770;2023-12-20T02:15:51;10.33;;;5.03;;
2646;SDS011;1333;50.958;6.770;2023-12-20T02:18:17;7.87;;;3.70;;
2646;SDS011;1333;50.958;6.770;2023-12-20T02:20:43;7.67;;;3.27;;
2646;SDS011;1333;50.958;6.770;2023-12-20T02:23:08;5.40;;;3.30;;
2646;SDS011;1333;50.958;6.770;2023-12-20T02:25:34;8.03;;;2.93;;
2646;SDS011;1333;50.958;6.770;2023-12-20T02:27:59;3.40;;;2.23;;
2646;SDS011;1333;50.958;6.770;2023-12-20T02:30:26;5.87;;;2.37;;
2646;SDS011;1333;50.958;6.770;2023-12-20T02:32:51;13.67;;;4.47;;
2646;SDS011;1333;50.958;6.770;2023-12-20T02:35:18;7.40;;;2.50;;
2646;SDS011;1333;50.958;6.770;2023-12-20T02:37:43;3.33;;;2.10;;
2646;SDS011;1333;50.958;6.770;2023-12-20T02:40:09;7.10;;;2.40;;
2646;SDS011;1333;50.958;6.770;2023-12-20T02:42:35;7.90;;;2.50;;
2646;SDS011;1333;50.958;6.770;2023-12-20T02:45:01;4.87;;;2.20;;
2646;SDS011;1333;50.958;6.770;2023-12-20T02:47:26;3.57;;;2.03;;
2646;SDS011;1333;50.958;6.770;2023-12-20T02:49:52;15.60;;;2.00;;
2646;SDS011;1333;50.958;6.770;2023-12-20T02:52:18;4.13;;;2.00;;
2646;SDS011;1333;50.958;6.770;2023-12-20T02:54:43;7.90;;;1.83;;
2646;SDS011;1333;50.958;6.770;2023-12-20T02:57:09;3.10;;;1.47;;
2646;SDS011;1333;50.958;6.770;2023-12-20T02:59:34;9.83;;;2.20;;
2646;SDS011;1333;50.958;6.770;2023-12-20T03:02:00;7.93;;;2.40;;
2646;SDS011;1333;50.958;6.770;2023-12-20T03:04:25;15.07;;;2.87;;
2646;SDS011;1333;50.958;6.770;2023-12-20T03:06:51;5.07;;;1.90;;
2646;SDS011;1333;50.958;6.770;2023-12-20T03:09:16;5.60;;;2.40;;
2646;SDS011;1333;50.958;6.770;2023-12-20T03:11:42;7.43;;;2.73;;
2646;SDS011;1333;50.958;6.770;2023-12-20T03:14:07;8.37;;;3.17;;
2646;SDS011;1333;50.958;6.770;2023-12-20T03:16:33;9.63;;;2.37;;
2646;SDS011;1333;50.958;6.770;2023-12-20T03:18:58;4.63;;;1.97;;
2646;SDS011;1333;50.958;6.770;2023-12-20T03:21:24;5.20;;;2.37;;
2646;SDS011;1333;50.958;6.770;2023-12-20T03:23:49;10.33;;;2.90;;
2646;SDS011;1333;50.958;6.770;2023-12-20T03:26:16;8.77;;;2.53;;
2646;SDS011;1333;50.958;6.770;2023-12-20T03:28:41;5.30;;;1.80;;
2646;SDS011;1333;50.958;6.770;2023-12-20T03:31:07;4.90;;;2.17;;
2646;SDS011;1333;50.958;6.770;2023-12-20T03:33:34;7.33;;;2.53;;
2646;SDS011;1333;50.958;6.770;2023-12-20T03:35:59;6.13;;;2.63;;
2646;SDS011;1333;50.958;6.770;2023-12-20T03:38:25;7.33;;;3.77;;
2646;SDS011;1333;50.958;6.770;2023-12-20T03:40:50;13.47;;;6.57;;
2646;SDS011;1333;50.958;6.770;2023-12-20T03:43:16;6.30;;;2.80;;
2646;SDS011;1333;50.958;6.770;2023-12-20T03:45:42;8.00;;;2.70;;
2646;SDS011;1333;50.958;6.770;2023-12-20T03:48:08;12.37;;;2.33;;
2646;SDS011;1333;50.958;6.770;2023-12-20T03:50:33;7.23;;;2.47;;
2646;SDS011;1333;50.958;6.770;2023-12-20T03:53:00;11.83;;;3.23;;
2646;SDS011;1333;50.958;6.770;2023-12-20T03:55:25;8.53;;;3.30;;
2646;SDS011;1333;50.958;6.770;2023-12-20T03:57:51;8.03;;;3.27;;
2646;SDS011;1333;50.958;6.770;2023-12-20T04:00:16;12.23;;;5.10;;
2646;SDS011;1333;50.958;6.770;2023-12-20T04:02:42;3.70;;;3.20;;
2646;SDS011;1333;50.958;6.770;2023-12-20T04:05:08;7.33;;;2.67;;
2646;SDS011;1333;50.958;6.770;2023-12-20T04:07:35;9.57;;;2.60;;
2646;SDS011;1333;50.958;6.770;2023-12-20T04:10:01;11.73;;;3.00;;
2646;SDS011;1333;50.958;6.770;2023-12-20T04:12:27;8.10;;;3.43;;
2646;SDS011;1333;50.958;6.770;2023-12-20T04:14:53;12.20;;;3.20;;
2646;SDS011;1333;50.958;6.770;2023-12-20T04:17:19;8.30;;;2.77;;
2646;SDS011;1333;50.958;6.770;2023-12-20T04:19:45;5.27;;;3.13;;
2646;SDS011;1333;50.958;6.770;2023-12-20T04:22:10;5.30;;;3.27;;
2646;SDS011;1333;50.958;6.770;2023-12-20T04:24:36;6.43;;;2.60;;
2646;SDS011;1333;50.958;6.770;2023-12-20T04:27:01;13.87;;;4.07;;
2646;SDS011;1333;50.958;6.770;2023-12-20T04:29:27;17.60;;;3.10;;
2646;SDS011;1333;50.958;6.770;2023-12-20T04:31:53;8.00;;;3.10;;
2646;SDS011;1333;50.958;6.770;2023-12-20T04:34:18;6.50;;;3.73;;
2646;SDS011;1333;50.958;6.770;2023-12-20T04:36:44;5.90;;;2.93;;
2646;SDS011;1333;50.958;6.770;2023-12-20T04:39:13;12.93;;;3.63;;
2646;SDS011;1333;50.958;6.770;2023-12-20T04:41:42;10.00;;;5.47;;
2646;SDS011;1333;50.958;6.770;2023-12-20T04:44:07;10.03;;;3.33;;
2646;SDS011;1333;50.958;6.770;2023-12-20T04:46:33;9.20;;;3.83;;
2646;SDS011;1333;50.958;6.770;2023-12-20T04:48:58;7.50;;;3.10;;
2646;SDS011;1333;50.958;6.770;2023-12-20T04:51:24;7.23;;;3.03;;
2646;SDS011;1333;50.958;6.770;2023-12-20T04:53:49;4.80;;;2.20;;
2646;SDS011;1333;50.958;6.770;2023-12-20T04:56:15;7.60;;;3.00;;
2646;SDS011;1333;50.958;6.770;2023-12-20T04:58:42;12.90;;;3.50;;
2646;SDS011;1333;50.958;6.770;2023-12-20T05:01:08;4.83;;;2.90;;
2646;SDS011;1333;50.958;6.770;2023-12-20T05:03:34;5.10;;;3.10;;
2646;SDS011;1333;50.958;6.770;2023-12-20T05:05:59;9.37;;;3.60;;
2646;SDS011;1333;50.958;6.770;2023-12-20T05:08:25;3.93;;;2.57;;
2646;SDS011;1333;50.958;6.770;2023-12-20T05:10:51;11.33;;;2.40;;
2646;SDS011;1333;50.958;6.770;2023-12-20T05:13:18;9.80;;;3.57;;
2646;SDS011;1333;50.958;6.770;2023-12-20T05:15:44;6.20;;;3.00;;
2646;SDS011;1333;50.958;6.770;2023-12-20T05:18:09;9.17;;;3.70;;
2646;SDS011;1333;50.958;6.770;2023-12-20T05:20:35;6.73;;;3.10;;
2646;SDS011;1333;50.958;6.770;2023-12-20T05:23:00;5.77;;;3.07;;
2646;SDS011;1333;50.958;6.770;2023-12-20T05:25:26;6.53;;;3.60;;
2646;SDS011;1333;50.958;6.770;2023-12-20T05:27:52;10.80;;;3.17;;
2646;SDS011;1333;50.958;6.770;2023-12-20T05:30:17;12.43;;;4.03;;
2646;SDS011;1333;50.958;6.770;2023-12-20T05:32:43;17.57;;;4.47;;
2646;SDS011;1333;50.958;6.770;2023-12-20T05:35:08;11.40;;;5.13;;
2646;SDS011;1333;50.958;6.770;2023-12-20T05:37:34;17.63;;;3.73;;
2646;SDS011;1333;50.958;6.770;2023-12-20T05:39:59;14.20;;;3.20;;
2646;SDS011;1333;50.958;6.770;2023-12-20T05:42:25;18.70;;;3.23;;
2646;SDS011;1333;50.958;6.770;2023-12-20T05:44:50;8.10;;;2.97;;
2646;SDS011;1333;50.958;6.770;2023-12-20T05:47:16;8.40;;;3.60;;
2646;SDS011;1333;50.958;6.770;2023-12-20T05:49:42;7.40;;;3.40;;
2646;SDS011;1333;50.958;6.770;2023-12-20T05:52:09;7.07;;;3.47;;
2646;SDS011;1333;50.958;6.770;2023-12-20T05:54:34;9.93;;;3.50;;
2646;SDS011;1333;50.958;6.770;2023-12-20T05:56:59;10.00;;;3.33;;
2646;SDS011;1333;50.958;6.770;2023-12-20T05:59:25;12.10;;;3.37;;
2646;SDS011;1333;50.958;6.770;2023-12-20T06:01:51;9.37;;;3.30;;
2646;SDS011;1333;50.958;6.770;2023-12-20T06:04:16;11.00;;;3.37;;
2646;SDS011;1333;50.958;6.770;2023-12-20T06:06:42;13.30;;;3.60;;
2646;SDS011;1333;50.958;6.770;2023-12-20T06:09:08;8.10;;;3.53;;
2646;SDS011;1333;50.958;6.770;2023-12-20T06:11:33;8.60;;;5.20;;
2646;SDS011;1333;50.958;6.770;2023-12-20T06:13:59;21.83;;;3.30;;
2646;SDS011;1333;50.958;6.770;2023-12-20T06:16:24;10.57;;;3.17;;
2646;SDS011;1333;50.958;6.770;2023-12-20T06:18:50;13.10;;;2.67;;
2646;SDS011;1333;50.958;6.770;2023-12-20T06:21:15;10.57;;;2.97;;
2646;SDS011;1333;50.958;6.770;2023-12-20T06:23:41;9.03;;;2.83;;
2646;SDS011;1333;50.958;6.770;2023-12-20T06:26:06;4.77;;;2.90;;
2646;SDS011;1333;50.958;6.770;2023-12-20T06:28:32;7.27;;;3.30;;
2646;SDS011;1333;50.958;6.770;2023-12-20T06:30:57;8.87;;;3.73;;
2646;SDS011;1333;50.958;6.770;2023-12-20T06:33:24;7.80;;;3.20;;
2646;SDS011;1333;50.958;6.770;2023-12-20T06:35:50;5.37;;;2.10;;
2646;SDS011;1333;50.958;6.770;2023-12-20T06:38:15;12.03;;;4.17;;
2646;SDS011;1333;50.958;6.770;2023-12-20T06:40:42;11.93;;;3.57;;
2646;SDS011;1333;50.958;6.770;2023-12-20T06:43:08;8.60;;;3.47;;
2646;SDS011;1333;50.958;6.770;2023-12-20T06:45:33;9.83;;;3.70;;
2646;SDS011;1333;50.958;6.770;2023-12-20T06:47:59;8.17;;;3.33;;
2646;SDS011;1333;50.958;6.770;2023-12-20T06:50:25;17.83;;;3.40;;
2646;SDS011;1333;50.958;6.770;2023-12-20T06:52:50;10.47;;;2.83;;
2646;SDS011;1333;50.958;6.770;2023-12-20T06:55:16;16.93;;;3.83;;
2646;SDS011;1333;50.958;6.770;2023-12-20T06:57:42;6.10;;;2.60;;
2646;SDS011;1333;50.958;6.770;2023-12-20T07:00:08;5.90;;;3.17;;
2646;SDS011;1333;50.958;6.770;2023-12-20T07:02:35;9.03;;;2.87;;
2646;SDS011;1333;50.958;6.770;2023-12-20T07:05:01;5.80;;;2.80;;
2646;SDS011;1333;50.958;6.770;2023-12-20T07:07:26;7.40;;;3.10;;
2646;SDS011;1333;50.958;6.770;2023-12-20T07:09:52;9.60;;;2.70;;
2646;SDS011;1333;50.958;6.770;2023-12-20T07:12:17;9.40;;;3.17;;
2646;SDS011;1333;50.958;6.770;2023-12-20T07:14:46;13.87;;;3.90;;
2646;SDS011;1333;50.958;6.770;2023-12-20T07:17:11;6.23;;;3.20;;
2646;SDS011;1333;50.958;6.770;2023-12-20T07:19:39;15.93;;;4.10;;
2646;SDS011;1333;50.958;6.770;2023-12-20T07:22:05;8.73;;;2.53;;
2646;SDS011;1333;50.958;6.770;2023-12-20T07:24:31;7.47;;;3.17;;
2646;SDS011;1333;50.958;6.770;2023-12-20T07:26:57;7.27;;;2.90;;
2646;SDS011;1333;50.958;6.770;2023-12-20T07:29:24;15.10;;;3.40;;
2646;SDS011;1333;50.958;6.770;2023-12-20T07:31:50;7.67;;;4.07;;
2646;SDS011;1333;50.958;6.770;2023-12-20T07:34:17;6.60;;;3.50;;
2646;SDS011;1333;50.958;6.770;2023-12-20T07:36:43;13.67;;;3.63;;
2646;SDS011;1333;50.958;6.770;2023-12-20T07:39:08;12.03;;;3.60;;
2646;SDS011;1333;50.958;6.770;2023-12-20T07:41:34;9.70;;;3.73;;
2646;SDS011;1333;50.958;6.770;2023-12-20T07:43:59;7.60;;;3.93;;
2646;SDS011;1333;50.958;6.770;2023-12-20T07:46:25;14.80;;;4.40;;
2646;SDS011;1333;50.958;6.770;2023-12-20T07:48:50;15.13;;;3.63;;
2646;SDS011;1333;50.958;6.770;2023-12-20T07:51:16;5.20;;;3.17;;
2646;SDS011;1333;50.958;6.770;2023-12-20T07:53:42;9.43;;;3.77;;
2646;SDS011;1333;50.958;6.770;2023-12-20T07:56:16;8.40;;;4.00;;
2646;SDS011;1333;50.958;6.770;2023-12-20T07:58:42;7.17;;;3.10;;
2646;SDS011;1333;50.958;6.770;2023-12-20T08:01:08;18.03;;;3.60;;
2646;SDS011;1333;50.958;6.770;2023-12-20T08:03:34;16.93;;;2.53;;
2646;SDS011;1333;50.958;6.770;2023-12-20T08:06:00;9.33;;;3.40;;
2646;SDS011;1333;50.958;6.770;2023-12-20T08:08:25;11.10;;;4.73;;
2646;SDS011;1333;50.958;6.770;2023-12-20T08:10:51;8.20;;;3.53;;
2646;SDS011;1333;50.958;6.770;2023-12-20T08:13:16;9.23;;;3.53;;
2646;SDS011;1333;50.958;6.770;2023-12-20T08:15:42;12.00;;;4.40;;
2646;SDS011;1333;50.958;6.770;2023-12-20T08:18:07;6.93;;;4.73;;
2646;SDS011;1333;50.958;6.770;2023-12-20T08:20:33;7.33;;;4.37;;
2646;SDS011;1333;50.958;6.770;2023-12-20T08:22:58;7.70;;;3.80;;
2646;SDS011;1333;50.958;6.770;2023-12-20T08:25:24;9.13;;;4.70;;
2646;SDS011;1333;50.958;6.770;2023-12-20T08:27:49;10.13;;;4.50;;
2646;SDS011;1333;50.958;6.770;2023-12-20T08:30:15;14.43;;;3.90;;
2646;SDS011;1333;50.958;6.770;2023-12-20T08:32:45;27.47;;;3.67;;
2646;SDS011;1333;50.958;6.770;2023-12-20T08:35:11;10.07;;;3.20;;
2646;SDS011;1333;50.958;6.770;2023-12-20T08:37:36;7.83;;;3.37;;
2646;SDS011;1333;50.958;6.770;2023-12-20T08:40:02;6.37;;;2.80;;
2646;SDS011;1333;50.958;6.770;2023-12-20T08:42:27;4.10;;;2.27;;
2646;SDS011;1333;50.958;6.770;2023-12-20T08:44:56;10.93;;;3.30;;
2646;SDS011;1333;50.958;6.770;2023-12-20T08:47:23;12.67;;;4.00;;
2646;SDS011;1333;50.958;6.770;2023-12-20T08:49:49;13.20;;;5.33;;
2646;SDS011;1333;50.958;6.770;2023-12-20T08:52:14;5.97;;;2.60;;
2646;SDS011;1333;50.958;6.770;2023-12-20T08:54:40;5.93;;;2.60;;
2646;SDS011;1333;50.958;6.770;2023-12-20T08:57:05;10.60;;;3.20;;
2646;SDS011;1333;50.958;6.770;2023-12-20T08:59:31;11.13;;;2.70;;
2646;SDS011;1333;50.958;6.770;2023-12-20T09:01:57;13.03;;;2.60;;
2646;SDS011;1333;50.958;6.770;2023-12-20T09:04:23;6.27;;;3.43;;
2646;SDS011;1333;50.958;6.770;2023-12-20T09:06:48;8.93;;;3.10;;
2646;SDS011;1333;50.958;6.770;2023-12-20T09:09:14;5.53;;;2.70;;
2646;SDS011;1333;50.958;6.770;2023-12-20T09:11:40;7.63;;;2.77;;
2646;SDS011;1333;50.958;6.770;2023-12-20T09:14:05;7.30;;;3.13;;
2646;SDS011;1333;50.958;6.770;2023-12-20T09:16:31;9.13;;;3.10;;
2646;SDS011;1333;50.958;6.770;2023-12-20T09:18:57;9.63;;;2.60;;
2646;SDS011;1333;50.958;6.770;2023-12-20T09:21:23;6.53;;;2.70;;
2646;SDS011;1333;50.958;6.770;2023-12-20T09:23:48;6.03;;;2.40;;
2646;SDS011;1333;50.958;6.770;2023-12-20T09:26:14;5.77;;;2.50;;
2646;SDS011;1333;50.958;6.770;2023-12-20T09:28:39;8.73;;;2.90;;
2646;SDS011;1333;50.958;6.770;2023-12-20T09:31:05;17.10;;;3.50;;
2646;SDS011;1333;50.958;6.770;2023-12-20T09:33:31;4.67;;;2.60;;
2646;SDS011;1333;50.958;6.770;2023-12-20T09:35:57;10.67;;;3.53;;
2646;SDS011;1333;50.958;6.770;2023-12-20T09:38:23;12.03;;;2.90;;
2646;SDS011;1333;50.958;6.770;2023-12-20T09:40:48;9.97;;;3.53;;
2646;SDS011;1333;50.958;6.770;2023-12-20T09:43:14;9.80;;;3.03;;
2646;SDS011;1333;50.958;6.770;2023-12-20T09:45:41;11.60;;;2.83;;
2646;SDS011;1333;50.958;6.770;2023-12-20T09:48:09;5.87;;;2.60;;
2646;SDS011;1333;50.958;6.770;2023-12-20T09:50:36;9.67;;;2.30;;
2646;SDS011;1333;50.958;6.770;2023-12-20T09:53:02;8.40;;;3.07;;
2646;SDS011;1333;50.958;6.770;2023-12-20T09:55:29;7.73;;;2.93;;
2646;SDS011;1333;50.958;6.770;2023-12-20T09:57:57;16.87;;;2.97;;
2646;SDS011;1333;50.958;6.770;2023-12-20T10:00:22;6.20;;;2.60;;
2646;SDS011;1333;50.958;6.770;2023-12-20T10:02:56;7.40;;;3.33;;
2646;SDS011;1333;50.958;6.770;2023-12-20T10:05:26;10.83;;;3.00;;
2646;SDS011;1333;50.958;6.770;2023-12-20T10:08:02;10.53;;;2.87;;
2646;SDS011;1333;50.958;6.770;2023-12-20T10:10:28;11.23;;;3.13;;
2646;SDS011;1333;50.958;6.770;2023-12-20T10:13:03;8.73;;;3.03;;
2646;SDS011;1333;50.958;6.770;2023-12-20T10:15:36;5.60;;;2.37;;
2646;SDS011;1333;50.958;6.770;2023-12-20T10:18:03;7.43;;;2.77;;
2646;SDS011;1333;50.958;6.770;2023-12-20T10:20:29;6.27;;;2.30;;
2646;SDS011;1333;50.958;6.770;2023-12-20T10:22:56;3.73;;;2.90;;
2646;SDS011;1333;50.958;6.770;2023-12-20T10:25:22;17.97;;;2.93;;
2646;SDS011;1333;50.958;6.770;2023-12-20T10:27:49;7.20;;;3.70;;
2646;SDS011;1333;50.958;6.770;2023-12-20T10:30:33;8.27;;;2.90;;
2646;SDS011;1333;50.958;6.770;2023-12-20T10:32:58;7.20;;;2.73;;
2646;SDS011;1333;50.958;6.770;2023-12-20T10:35:24;5.83;;;3.53;;
2646;SDS011;1333;50.958;6.770;2023-12-20T10:37:49;8.57;;;2.97;;
2646;SDS011;1333;50.958;6.770;2023-12-20T10:40:17;7.80;;;3.03;;
2646;SDS011;1333;50.958;6.770;2023-12-20T10:42:42;8.90;;;3.37;;
2646;SDS011;1333;50.958;6.770;2023-12-20T10:45:08;5.27;;;2.40;;
2646;SDS011;1333;50.958;6.770;2023-12-20T10:47:34;8.47;;;3.03;;
2646;SDS011;1333;50.958;6.770;2023-12-20T10:50:02;9.37;;;3.30;;
2646;SDS011;1333;50.958;6.770;2023-12-20T10:52:30;7.50;;;2.93;;
2646;SDS011;1333;50.958;6.770;2023-12-20T10:54:59;8.33;;;2.97;;
2646;SDS011;1333;50.958;6.770;2023-12-20T10:57:25;8.20;;;2.50;;
2646;SDS011;1333;50.958;6.770;2023-12-20T10:59:53;7.83;;;2.63;;
2646;SDS011;1333;50.958;6.770;2023-12-20T11:02:19;13.90;;;3.03;;
2646;SDS011;1333;50.958;6.770;2023-12-20T11:07:35;6.87;;;2.47;;
2646;SDS011;1333;50.958;6.770;2023-12-20T11:12:44;7.67;;;3.13;;
2646;SDS011;1333;50.958;6.770;2023-12-20T11:15:19;14.87;;;3.87;;
2646;SDS011;1333;50.958;6.770;2023-12-20T11:17:45;6.83;;;2.50;;
2646;SDS011;1333;50.958;6.770;2023-12-20T11:20:11;9.50;;;2.50;;
2646;SDS011;1333;50.958;6.770;2023-12-20T11:22:37;7.83;;;1.97;;
2646;SDS011;1333;50.958;6.770;2023-12-20T11:25:05;7.47;;;5.03;;
2646;SDS011;1333;50.958;6.770;2023-12-20T11:27:36;7.57;;;2.47;;
2646;SDS011;1333;50.958;6.770;2023-12-20T11:30:05;5.80;;;2.53;;
2646;SDS011;1333;50.958;6.770;2023-12-20T11:32:33;9.00;;;3.00;;
2646;SDS011;1333;50.958;6.770;2023-12-20T11:35:00;5.63;;;2.43;;
2646;SDS011;1333;50.958;6.770;2023-12-20T11:37:41;16.17;;;3.83;;
2646;SDS011;1333;50.958;6.770;2023-12-20T11:40:12;8.97;;;2.53;;
2646;SDS011;1333;50.958;6.770;2023-12-20T11:42:43;12.80;;;2.50;;
2646;SDS011;1333;50.958;6.770;2023-12-20T11:45:13;5.30;;;2.73;;
2646;SDS011;1333;50.958;6.770;2023-12-20T11:47:45;5.00;;;2.40;;
2646;SDS011;1333;50.958;6.770;2023-12-20T11:50:12;4.70;;;2.73;;
2646;SDS011;1333;50.958;6.770;2023-12-20T11:52:38;11.20;;;3.00;;
2646;SDS011;1333;50.958;6.770;2023-12-20T11:55:03;5.37;;;2.80;;
2646;SDS011;1333;50.958;6.770;2023-12-20T11:57:30;7.90;;;2.33;;
2646;SDS011;1333;50.958;6.770;2023-12-20T11:59:56;8.40;;;2.93;;
2646;SDS011;1333;50.958;6.770;2023-12-20T12:02:21;3.83;;;2.90;;
2646;SDS011;1333;50.958;6.770;2023-12-20T12:04:48;5.87;;;3.30;;
2646;SDS011;1333;50.958;6.770;2023-12-20T12:07:15;6.30;;;2.10;;
2646;SDS011;1333;50.958;6.770;2023-12-20T12:09:41;4.80;;;2.50;;
2646;SDS011;1333;50.958;6.770;2023-12-20T12:12:07;6.70;;;2.23;;
2646;SDS011;1333;50.958;6.770;2023-12-20T12:14:33;7.77;;;3.33;;
2646;SDS011;1333;50.958;6.770;2023-12-20T12:17:00;4.37;;;2.63;;
2646;SDS011;1333;50.958;6.770;2023-12-20T12:19:26;11.17;;;2.77;;
2646;SDS011;1333;50.958;6.770;2023-12-20T12:22:05;3.50;;;2.20;;
2646;SDS011;1333;50.958;6.770;2023-12-20T12:24:41;9.87;;;2.80;;
2646;SDS011;1333;50.958;6.770;2023-12-20T12:27:11;10.10;;;3.07;;
2646;SDS011;1333;50.958;6.770;2023-12-20T12:29:38;4.50;;;2.50;;
2646;SDS011;1333;50.958;6.770;2023-12-20T12:32:07;7.97;;;3.03;;
2646;SDS011;1333;50.958;6.770;2023-12-20T12:34:36;9.30;;;3.17;;
2646;SDS011;1333;50.958;6.770;2023-12-20T12:37:03;7.70;;;3.27;;
2646;SDS011;1333;50.958;6.770;2023-12-20T12:39:29;5.60;;;2.93;;
2646;SDS011;1333;50.958;6.770;2023-12-20T12:41:55;7.00;;;2.40;;
2646;SDS011;1333;50.958;6.770;2023-12-20T12:44:21;9.60;;;3.30;;
2646;SDS011;1333;50.958;6.770;2023-12-20T12:46:49;7.17;;;3.20;;
2646;SDS011;1333;50.958;6.770;2023-12-20T12:49:16;4.80;;;3.17;;
2646;SDS011;1333;50.958;6.770;2023-12-20T12:51:42;6.67;;;3.07;;
2646;SDS011;1333;50.958;6.770;2023-12-20T12:54:08;7.30;;;2.97;;
2646;SDS011;1333;50.958;6.770;2023-12-20T12:56:34;6.17;;;2.90;;
2646;SDS011;1333;50.958;6.770;2023-12-20T12:59:00;8.07;;;3.07;;
2646;SDS011;1333;50.958;6.770;2023-12-20T13:01:26;10.37;;;4.17;;
2646;SDS011;1333;50.958;6.770;2023-12-20T13:03:52;10.27;;;3.30;;
2646;SDS011;1333;50.958;6.770;2023-12-20T13:06:17;5.67;;;3.40;;
2646;SDS011;1333;50.958;6.770;2023-12-20T13:08:43;8.10;;;3.23;;
2646;SDS011;1333;50.958;6.770;2023-12-20T13:11:09;8.10;;;2.90;;
2646;SDS011;1333;50.958;6.770;2023-12-20T13:13:35;8.40;;;3.77;;
2646;SDS011;1333;50.958;6.770;2023-12-20T13:16:00;4.63;;;2.97;;
2646;SDS011;1333;50.958;6.770;2023-12-20T13:18:26;13.27;;;3.80;;
2646;SDS011;1333;50.958;6.770;2023-12-20T13:20:51;7.70;;;3.93;;
2646;SDS011;1333;50.958;6.770;2023-12-20T13:23:17;7.90;;;4.07;;
2646;SDS011;1333;50.958;6.770;2023-12-20T13:25:46;6.83;;;2.50;;
2646;SDS011;1333;50.958;6.770;2023-12-20T13:28:11;5.80;;;2.67;;
2646;SDS011;1333;50.958;6.770;2023-12-20T13:30:37;5.03;;;2.50;;
2646;SDS011;1333;50.958;6.770;2023-12-20T13:33:04;5.53;;;2.70;;
2646;SDS011;1333;50.958;6.770;2023-12-20T13:35:30;6.30;;;3.23;;
2646;SDS011;1333;50.958;6.770;2023-12-20T13:37:56;5.20;;;2.03;;
2646;SDS011;1333;50.958;6.770;2023-12-20T13:40:22;4.73;;;2.23;;
2646;SDS011;1333;50.958;6.770;2023-12-20T13:42:48;11.40;;;3.27;;
2646;SDS011;1333;50.958;6.770;2023-12-20T13:45:14;10.17;;;3.00;;
2646;SDS011;1333;50.958;6.770;2023-12-20T13:47:39;7.90;;;2.40;;
2646;SDS011;1333;50.958;6.770;2023-12-20T13:50:05;8.07;;;2.03;;
2646;SDS011;1333;50.958;6.770;2023-12-20T13:52:31;9.57;;;4.23;;
2646;SDS011;1333;50.958;6.770;2023-12-20T13:54:56;5.40;;;1.87;;
2646;SDS011;1333;50.958;6.770;2023-12-20T13:57:22;4.40;;;2.77;;
2646;SDS011;1333;50.958;6.770;2023-12-20T13:59:47;5.67;;;2.43;;
2646;SDS011;1333;50.958;6.770;2023-12-20T14:02:13;6.37;;;2.73;;
2646;SDS011;1333;50.958;6.770;2023-12-20T14:04:38;6.30;;;2.50;;
2646;SDS011;1333;50.958;6.770;2023-12-20T14:07:04;2.97;;;2.70;;
2646;SDS011;1333;50.958;6.770;2023-12-20T14:09:30;5.23;;;2.30;;
2646;SDS011;1333;50.958;6.770;2023-12-20T14:11:55;9.13;;;3.33;;
2646;SDS011;1333;50.958;6.770;2023-12-20T14:14:21;2.93;;;2.10;;
2646;SDS011;1333;50.958;6.770;2023-12-20T14:16:46;8.80;;;2.87;;
2646;SDS011;1333;50.958;6.770;2023-12-20T14:19:12;5.13;;;2.00;;
2646;SDS011;1333;50.958;6.770;2023-12-20T14:21:37;7.93;;;3.27;;
2646;SDS011;1333;50.958;6.770;2023-12-20T14:24:03;9.23;;;3.10;;
2646;SDS011;1333;50.958;6.770;2023-12-20T14:26:29;6.97;;;3.27;;
2646;SDS011;1333;50.958;6.770;2023-12-20T14:28:56;9.50;;;2.80;;
2646;SDS011;1333;50.958;6.770;2023-12-20T14:31:21;5.20;;;2.23;;
2646;SDS011;1333;50.958;6.770;2023-12-20T14:33:49;6.40;;;2.47;;
2646;SDS011;1333;50.958;6.770;2023-12-20T14:36:15;5.53;;;2.30;;
2646;SDS011;1333;50.958;6.770;2023-12-20T14:38:42;9.13;;;3.00;;
2646;SDS011;1333;50.958;6.770;2023-12-20T14:41:08;5.60;;;3.00;;
2646;SDS011;1333;50.958;6.770;2023-12-20T14:43:34;8.23;;;3.33;;
2646;SDS011;1333;50.958;6.770;2023-12-20T14:45:59;11.50;;;4.43;;
2646;SDS011;1333;50.958;6.770;2023-12-20T14:48:25;4.53;;;3.87;;
2646;SDS011;1333;50.958;6.770;2023-12-20T14:50:52;3.90;;;2.13;;
2646;SDS011;1333;50.958;6.770;2023-12-20T14:53:18;6.70;;;2.73;;
2646;SDS011;1333;50.958;6.770;2023-12-20T14:55:44;12.03;;;3.10;;
2646;SDS011;1333;50.958;6.770;2023-12-20T14:58:10;5.70;;;2.57;;
2646;SDS011;1333;50.958;6.770;2023-12-20T15:00:35;6.20;;;2.20;;
2646;SDS011;1333;50.958;6.770;2023-12-20T15:03:01;7.00;;;2.60;;
2646;SDS011;1333;50.958;6.770;2023-12-20T15:05:29;3.57;;;2.13;;
2646;SDS011;1333;50.958;6.770;2023-12-20T15:07:54;10.30;;;2.53;;
2646;SDS011;1333;50.958;6.770;2023-12-20T15:10:20;8.17;;;2.20;;
2646;SDS011;1333;50.958;6.770;2023-12-20T15:12:46;6.93;;;2.77;;